sensor_id;sensor_type;location;lat;lon;timestamp;pressure;altitude;pressure_sealevel;temperature;humidity
6599;BME280;3335;43.198;27.918;2023-01-10T00:02:03;149451.25;;;8.74;100.00
6599;BME280;3335;43.198;27.918;2023-01-10T00:04:30;149440.00;;;8.70;100.00
6599;BME280;3335;43.198;27.918;2023-01-10T00:06:58;149453.75;;;8.75;100.00
6599;BME280;3335;43.198;27.918;2023-01-10T00:09:25;149448.78;;;8.73;100.00
6599;BME280;3335;43.198;27.918;2023-01-10T00:11:52;149458.75;;;8.77;100.00
6599;BME280;3335;43.198;27.918;2023-01-10T00:14:36;149461.25;;;8.78;100.00
6599;BME280;3335;43.198;27.918;2023-01-10T00:17:03;149436.31;;;8.68;100.00
6599;BME280;3335;43.198;27.918;2023-01-10T00:19:31;149261.66;;;7.98;100.00
6599;BME280;3335;43.198;27.918;2023-01-10T00:21:59;149453.75;;;8.75;100.00
6599;BME280;3335;43.198;27.918;2023-01-10T00:24:38;149461.25;;;8.78;100.00
6599;BME280;3335;43.198;27.918;2023-01-10T00:27:05;149463.72;;;8.79;100.00
6599;BME280;3335;43.198;27.918;2023-01-10T00:29:37;149468.72;;;8.82;100.00
6599;BME280;3335;43.198;27.918;2023-01-10T00:32:04;149438.81;;;8.69;100.00
6599;BME280;3335;43.198;27.918;2023-01-10T00:34:31;149466.22;;;8.81;100.00
6599;BME280;3335;43.198;27.918;2023-01-10T00:37:00;149466.22;;;8.81;100.00
6599;BME280;3335;43.198;27.918;2023-01-10T00:39:27;149476.19;;;8.85;100.00
6599;BME280;3335;43.198;27.918;2023-01-10T00:41:55;149473.72;;;8.84;100.00
6599;BME280;3335;43.198;27.918;2023-01-10T00:44:38;149486.16;;;8.89;100.00
6599;BME280;3335;43.198;27.918;2023-01-10T00:47:05;149468.72;;;8.82;100.00
6599;BME280;3335;43.198;27.918;2023-01-10T00:49:33;149496.19;;;8.93;100.00
6599;BME280;3335;43.198;27.918;2023-01-10T00:52:01;149488.66;;;8.90;100.00
6599;BME280;3335;43.198;27.918;2023-01-10T00:54:28;149501.16;;;8.95;100.00
6599;BME280;3335;43.198;27.918;2023-01-10T00:56:55;149514.88;;;9.00;100.00
6599;BME280;3335;43.198;27.918;2023-01-10T00:59:22;149538.59;;;9.10;100.00
6599;BME280;3335;43.198;27.918;2023-01-10T01:01:50;149553.56;;;9.16;100.00
6599;BME280;3335;43.198;27.918;2023-01-10T01:04:17;149568.53;;;9.22;100.00
6599;BME280;3335;43.198;27.918;2023-01-10T01:06:44;149573.53;;;9.24;100.00
6599;BME280;3335;43.198;27.918;2023-01-10T01:09:13;149577.28;;;9.26;100.00
6599;BME280;3335;43.198;27.918;2023-01-10T01:11:40;149582.25;;;9.28;100.00
6599;BME280;3335;43.198;27.918;2023-01-10T01:14:07;149581.00;;;9.27;100.00
6599;BME280;3335;43.198;27.918;2023-01-10T01:16:34;149586.03;;;9.29;100.00
6599;BME280;3335;43.198;27.918;2023-01-10T01:19:01;149594.75;;;9.33;100.00
6599;BME280;3335;43.198;27.918;2023-01-10T01:21:28;149588.53;;;9.30;100.00
6599;BME280;3335;43.198;27.918;2023-01-10T01:23:55;149588.53;;;9.30;100.00
6599;BME280;3335;43.198;27.918;2023-01-10T01:26:23;149598.50;;;9.34;100.00
6599;BME280;3335;43.198;27.918;2023-01-10T01:28:50;149612.22;;;9.40;100.00
6599;BME280;3335;43.198;27.918;2023-01-10T01:31:18;149603.47;;;9.36;100.00
6599;BME280;3335;43.198;27.918;2023-01-10T01:33:44;149607.22;;;9.38;100.00
6599;BME280;3335;43.198;27.918;2023-01-10T01:36:12;149618.44;;;9.42;100.00
6599;BME280;3335;43.198;27.918;2023-01-10T01:38:40;149623.47;;;9.44;100.00
6599;BME280;3335;43.198;27.918;2023-01-10T01:41:07;149615.94;;;9.41;100.00
6599;BME280;3335;43.198;27.918;2023-01-10T01:44:04;149623.47;;;9.44;100.00
6599;BME280;3335;43.198;27.918;2023-01-10T01:46:33;149614.75;;;9.41;100.00
6599;BME280;3335;43.198;27.918;2023-01-10T01:49:03;149625.97;;;9.45;100.00
6599;BME280;3335;43.198;27.918;2023-01-10T01:51:32;149640.91;;;9.51;100.00
6599;BME280;3335;43.198;27.918;2023-01-10T01:54:02;149650.91;;;9.55;100.00
6599;BME280;3335;43.198;27.918;2023-01-10T01:56:33;149650.91;;;9.55;100.00
6599;BME280;3335;43.198;27.918;2023-01-10T01:59:07;149670.91;;;9.63;100.00
6599;BME280;3335;43.198;27.918;2023-01-10T02:01:37;149670.91;;;9.63;100.00
6599;BME280;3335;43.198;27.918;2023-01-10T02:04:09;149685.84;;;9.70;100.00
6599;BME280;3335;43.198;27.918;2023-01-10T02:06:37;149700.84;;;9.76;100.00
6599;BME280;3335;43.198;27.918;2023-01-10T02:09:09;149698.34;;;9.75;100.00
6599;BME280;3335;43.198;27.918;2023-01-10T02:11:38;149720.81;;;9.84;100.00
6599;BME280;3335;43.198;27.918;2023-01-10T02:14:07;149737.06;;;9.90;100.00
6599;BME280;3335;43.198;27.918;2023-01-10T02:16:36;149749.53;;;9.95;100.00
6599;BME280;3335;43.198;27.918;2023-01-10T02:19:07;149753.31;;;9.97;100.00
6599;BME280;3335;43.198;27.918;2023-01-10T02:21:59;149754.56;;;9.97;100.00
6599;BME280;3335;43.198;27.918;2023-01-10T02:25:03;149772.00;;;10.04;100.00
6599;BME280;3335;43.198;27.918;2023-01-10T02:27:47;149762.03;;;10.00;100.00
6599;BME280;3335;43.198;27.918;2023-01-10T02:30:39;149759.53;;;9.99;100.00
6599;BME280;3335;43.198;27.918;2023-01-10T02:33:17;149710.81;;;9.80;100.00
6599;BME280;3335;43.198;27.918;2023-01-10T02:36:03;149785.75;;;10.10;100.00
6599;BME280;3335;43.198;27.918;2023-01-10T02:38:49;149789.53;;;10.12;100.00
6599;BME280;3335;43.198;27.918;2023-01-10T02:41:25;149791.97;;;10.13;100.00
6599;BME280;3335;43.198;27.918;2023-01-10T02:43:57;149800.81;;;10.16;100.00
6599;BME280;3335;43.198;27.918;2023-01-10T02:46:28;149819.50;;;10.24;100.00
6599;BME280;3335;43.198;27.918;2023-01-10T02:48:57;149818.25;;;10.23;100.00
6599;BME280;3335;43.198;27.918;2023-01-10T02:51:25;149820.78;;;10.24;100.00
6599;BME280;3335;43.198;27.918;2023-01-10T02:53:57;149795.75;;;10.14;100.00
6599;BME280;3335;43.198;27.918;2023-01-10T03:02:36;149823.28;;;10.25;100.00
6599;BME280;3335;43.198;27.918;2023-01-10T03:05:17;149818.25;;;10.23;100.00
6599;BME280;3335;43.198;27.918;2023-01-10T03:07:52;149813.28;;;10.21;100.00
6599;BME280;3335;43.198;27.918;2023-01-10T03:10:27;149812.03;;;10.21;100.00
6599;BME280;3335;43.198;27.918;2023-01-10T03:12:57;149819.50;;;10.24;100.00
6599;BME280;3335;43.198;27.918;2023-01-10T03:15:28;149813.28;;;10.21;100.00
6599;BME280;3335;43.198;27.918;2023-01-10T03:18:00;149838.22;;;10.31;100.00
6599;BME280;3335;43.198;27.918;2023-01-10T03:20:31;149838.22;;;10.31;100.00
6599;BME280;3335;43.198;27.918;2023-01-10T03:23:02;149837.03;;;10.31;100.00
6599;BME280;3335;43.198;27.918;2023-01-10T03:25:35;149823.28;;;10.25;100.00
6599;BME280;3335;43.198;27.918;2023-01-10T03:28:05;149828.25;;;10.27;100.00
6599;BME280;3335;43.198;27.918;2023-01-10T03:30:40;149823.28;;;10.25;100.00
6599;BME280;3335;43.198;27.918;2023-01-10T03:33:09;149823.28;;;10.25;100.00
6599;BME280;3335;43.198;27.918;2023-01-10T03:35:45;149818.25;;;10.23;100.00
6599;BME280;3335;43.198;27.918;2023-01-10T03:38:20;149830.75;;;10.28;100.00
6599;BME280;3335;43.198;27.918;2023-01-10T03:40:56;149835.78;;;10.30;100.00
6599;BME280;3335;43.198;27.918;2023-01-10T03:43:33;149835.78;;;10.30;100.00
6599;BME280;3335;43.198;27.918;2023-01-10T03:46:23;149833.25;;;10.29;100.00
6599;BME280;3335;43.198;27.918;2023-01-10T03:48:54;149835.78;;;10.30;100.00
6599;BME280;3335;43.198;27.918;2023-01-10T03:51:25;149838.22;;;10.31;100.00
6599;BME280;3335;43.198;27.918;2023-01-10T03:53:53;149835.78;;;10.30;100.00
6599;BME280;3335;43.198;27.918;2023-01-10T03:56:20;149833.25;;;10.29;100.00
6599;BME280;3335;43.198;27.918;2023-01-10T03:58:47;149835.78;;;10.30;100.00
6599;BME280;3335;43.198;27.918;2023-01-10T04:01:13;149850.72;;;10.36;100.00
6599;BME280;3335;43.198;27.918;2023-01-10T04:03:41;149843.25;;;10.33;100.00
6599;BME280;3335;43.198;27.918;2023-01-10T04:06:08;149830.75;;;10.28;100.00
6599;BME280;3335;43.198;27.918;2023-01-10T04:08:37;149845.75;;;10.34;100.00
6599;BME280;3335;43.198;27.918;2023-01-10T04:11:04;149835.78;;;10.30;100.00
6599;BME280;3335;43.198;27.918;2023-01-10T04:13:31;149845.75;;;10.34;100.00
6599;BME280;3335;43.198;27.918;2023-01-10T04:15:58;149840.75;;;10.32;100.00
6599;BME280;3335;43.198;27.918;2023-01-10T04:18:25;149823.28;;;10.25;100.00
6599;BME280;3335;43.198;27.918;2023-01-10T04:20:52;149803.25;;;10.17;100.00
6599;BME280;3335;43.198;27.918;2023-01-10T04:23:19;149805.78;;;10.18;100.00
6599;BME280;3335;43.198;27.918;2023-01-10T04:25:47;149787.00;;;10.10;100.00
6599;BME280;3335;43.198;27.918;2023-01-10T04:28:14;149770.75;;;10.04;100.00
6599;BME280;3335;43.198;27.918;2023-01-10T04:30:41;149773.25;;;10.05;100.00
6599;BME280;3335;43.198;27.918;2023-01-10T04:33:08;149775.78;;;10.06;100.00
6599;BME280;3335;43.198;27.918;2023-01-10T04:35:37;149765.78;;;10.02;100.00
6599;BME280;3335;43.198;27.918;2023-01-10T04:38:04;149763.28;;;10.01;100.00
6599;BME280;3335;43.198;27.918;2023-01-10T04:40:30;149755.75;;;9.98;100.00
6599;BME280;3335;43.198;27.918;2023-01-10T04:42:59;149758.28;;;9.99;100.00
6599;BME280;3335;43.198;27.918;2023-01-10T04:45:26;149768.25;;;10.03;100.00
6599;BME280;3335;43.198;27.918;2023-01-10T04:47:52;149768.25;;;10.03;100.00
6599;BME280;3335;43.198;27.918;2023-01-10T04:50:21;149790.78;;;10.12;100.00
6599;BME280;3335;43.198;27.918;2023-01-10T04:52:48;149794.47;;;10.14;100.00
6599;BME280;3335;43.198;27.918;2023-01-10T04:55:15;149793.22;;;10.13;100.00
6599;BME280;3335;43.198;27.918;2023-01-10T04:57:42;149788.25;;;10.11;100.00
6599;BME280;3335;43.198;27.918;2023-01-10T05:00:12;149709.56;;;9.79;100.00
6599;BME280;3335;43.198;27.918;2023-01-10T05:02:39;149787.00;;;10.10;100.00
6599;BME280;3335;43.198;27.918;2023-01-10T05:05:09;149790.78;;;10.12;100.00
6599;BME280;3335;43.198;27.918;2023-01-10T05:07:36;149744.53;;;9.93;100.00
6599;BME280;3335;43.198;27.918;2023-01-10T05:10:04;149805.78;;;10.18;100.00
6599;BME280;3335;43.198;27.918;2023-01-10T05:12:31;149808.28;;;10.19;100.00
6599;BME280;3335;43.198;27.918;2023-01-10T05:14:58;149822.03;;;10.25;100.00
6599;BME280;3335;43.198;27.918;2023-01-10T05:17:26;149808.28;;;10.19;100.00
6599;BME280;3335;43.198;27.918;2023-01-10T05:19:53;149810.78;;;10.20;100.00
6599;BME280;3335;43.198;27.918;2023-01-10T05:22:20;149815.75;;;10.22;100.00
6599;BME280;3335;43.198;27.918;2023-01-10T05:24:47;149825.78;;;10.26;100.00
6599;BME280;3335;43.198;27.918;2023-01-10T05:27:14;149828.25;;;10.27;100.00
6599;BME280;3335;43.198;27.918;2023-01-10T05:29:41;149820.78;;;10.24;100.00
6599;BME280;3335;43.198;27.918;2023-01-10T05:32:08;149815.75;;;10.22;100.00
6599;BME280;3335;43.198;27.918;2023-01-10T05:34:37;149817.00;;;10.23;100.00
6599;BME280;3335;43.198;27.918;2023-01-10T05:37:04;149815.75;;;10.22;100.00
6599;BME280;3335;43.198;27.918;2023-01-10T05:39:31;149823.28;;;10.25;100.00
6599;BME280;3335;43.198;27.918;2023-01-10T05:41:58;149800.81;;;10.16;100.00
6599;BME280;3335;43.198;27.918;2023-01-10T05:44:25;149508.66;;;8.98;100.00
6599;BME280;3335;43.198;27.918;2023-01-10T05:46:52;149848.25;;;10.35;100.00
6599;BME280;3335;43.198;27.918;2023-01-10T05:49:19;149853.22;;;10.37;100.00
6599;BME280;3335;43.198;27.918;2023-01-10T05:51:47;149850.72;;;10.36;100.00
6599;BME280;3335;43.198;27.918;2023-01-10T05:54:14;149858.25;;;10.39;100.00
6599;BME280;3335;43.198;27.918;2023-01-10T05:56:41;149849.50;;;10.36;100.00
6599;BME280;3335;43.198;27.918;2023-01-10T05:59:08;149858.25;;;10.39;100.00
6599;BME280;3335;43.198;27.918;2023-01-10T06:01:35;149864.47;;;10.42;100.00
6599;BME280;3335;43.198;27.918;2023-01-10T06:04:02;149860.75;;;10.40;100.00
6599;BME280;3335;43.198;27.918;2023-01-10T06:06:29;149870.75;;;10.44;100.00
6599;BME280;3335;43.198;27.918;2023-01-10T06:08:57;149865.72;;;10.42;100.00
6599;BME280;3335;43.198;27.918;2023-01-10T06:11:24;149848.25;;;10.35;100.00
6599;BME280;3335;43.198;27.918;2023-01-10T06:13:54;149888.22;;;10.51;100.00
6599;BME280;3335;43.198;27.918;2023-01-10T06:16:21;149886.94;;;10.51;100.00
6599;BME280;3335;43.198;27.918;2023-01-10T06:18:48;149873.19;;;10.45;100.00
6599;BME280;3335;43.198;27.918;2023-01-10T06:21:15;149876.97;;;10.47;100.00
6599;BME280;3335;43.198;27.918;2023-01-10T06:23:42;149893.22;;;10.53;100.00
6599;BME280;3335;43.198;27.918;2023-01-10T06:26:10;149905.72;;;10.59;100.00
6599;BME280;3335;43.198;27.918;2023-01-10T06:28:38;149885.69;;;10.50;100.00
6599;BME280;3335;43.198;27.918;2023-01-10T06:31:05;149899.44;;;10.56;100.00
6599;BME280;3335;43.198;27.918;2023-01-10T06:33:32;149901.94;;;10.57;100.00
6599;BME280;3335;43.198;27.918;2023-01-10T06:35:59;149903.22;;;10.58;100.00
6599;BME280;3335;43.198;27.918;2023-01-10T06:38:26;149913.19;;;10.62;100.00
6599;BME280;3335;43.198;27.918;2023-01-10T06:40:53;149915.69;;;10.63;100.00
6599;BME280;3335;43.198;27.918;2023-01-10T06:43:21;149918.22;;;10.64;100.00
6599;BME280;3335;43.198;27.918;2023-01-10T06:45:48;149928.19;;;10.68;100.00
6599;BME280;3335;43.198;27.918;2023-01-10T06:48:15;149919.47;;;10.64;100.00
6599;BME280;3335;43.198;27.918;2023-01-10T06:50:42;149925.69;;;10.67;100.00
6599;BME280;3335;43.198;27.918;2023-01-10T06:53:09;149903.22;;;10.58;100.00
6599;BME280;3335;43.198;27.918;2023-01-10T06:55:36;149940.69;;;10.73;100.00
6599;BME280;3335;43.198;27.918;2023-01-10T06:58:03;149940.69;;;10.73;100.00
6599;BME280;3335;43.198;27.918;2023-01-10T07:00:32;149940.69;;;10.73;100.00
6599;BME280;3335;43.198;27.918;2023-01-10T07:03:00;149945.66;;;10.75;100.00
6599;BME280;3335;43.198;27.918;2023-01-10T07:05:27;149950.69;;;10.77;100.00
6599;BME280;3335;43.198;27.918;2023-01-10T07:07:55;149948.19;;;10.76;100.00
6599;BME280;3335;43.198;27.918;2023-01-10T07:10:23;149948.19;;;10.76;100.00
6599;BME280;3335;43.198;27.918;2023-01-10T07:12:50;149953.19;;;10.78;100.00
6599;BME280;3335;43.198;27.918;2023-01-10T07:15:17;149958.16;;;10.80;100.00
6599;BME280;3335;43.198;27.918;2023-01-10T07:17:45;149963.19;;;10.82;100.00
6599;BME280;3335;43.198;27.918;2023-01-10T07:20:12;149958.16;;;10.80;100.00
6599;BME280;3335;43.198;27.918;2023-01-10T07:22:39;149958.16;;;10.80;100.00
6599;BME280;3335;43.198;27.918;2023-01-10T07:25:07;149955.66;;;10.79;100.00
6599;BME280;3335;43.198;27.918;2023-01-10T07:27:34;149953.19;;;10.78;100.00
6599;BME280;3335;43.198;27.918;2023-01-10T07:30:01;149970.66;;;10.85;100.00
6599;BME280;3335;43.198;27.918;2023-01-10T07:32:28;149965.69;;;10.83;100.00
6599;BME280;3335;43.198;27.918;2023-01-10T07:34:56;149980.66;;;10.89;100.00
6599;BME280;3335;43.198;27.918;2023-01-10T07:37:23;149998.16;;;10.96;100.00
6599;BME280;3335;43.198;27.918;2023-01-10T07:39:50;150010.66;;;11.01;100.00
6599;BME280;3335;43.198;27.918;2023-01-10T07:42:17;150028.13;;;11.08;100.00
6599;BME280;3335;43.198;27.918;2023-01-10T07:44:44;150038.13;;;11.12;100.00
6599;BME280;3335;43.198;27.918;2023-01-10T07:47:10;150050.63;;;11.17;100.00
6599;BME280;3335;43.198;27.918;2023-01-10T07:49:37;150065.63;;;11.23;100.00
6599;BME280;3335;43.198;27.918;2023-01-10T07:52:06;150085.63;;;11.31;100.00
6599;BME280;3335;43.198;27.918;2023-01-10T07:54:33;150089.38;;;11.33;100.00
6599;BME280;3335;43.198;27.918;2023-01-10T07:57:00;150100.63;;;11.37;100.00
6599;BME280;3335;43.198;27.918;2023-01-10T07:59:27;150110.63;;;11.41;100.00
6599;BME280;3335;43.198;27.918;2023-01-10T08:01:54;150133.13;;;11.51;100.00
6599;BME280;3335;43.198;27.918;2023-01-10T08:04:21;150128.16;;;11.49;100.00
6599;BME280;3335;43.198;27.918;2023-01-10T08:06:48;150120.63;;;11.46;100.00
6599;BME280;3335;43.198;27.918;2023-01-10T08:09:17;150143.13;;;11.55;100.00
6599;BME280;3335;43.198;27.918;2023-01-10T08:11:44;150153.16;;;11.59;100.00
6599;BME280;3335;43.198;27.918;2023-01-10T08:14:11;150130.66;;;11.50;100.00
6599;BME280;3335;43.198;27.918;2023-01-10T08:16:38;150155.63;;;11.60;100.00
6599;BME280;3335;43.198;27.918;2023-01-10T08:19:05;150155.63;;;11.60;100.00
6599;BME280;3335;43.198;27.918;2023-01-10T08:21:32;150165.66;;;11.64;100.00
6599;BME280;3335;43.198;27.918;2023-01-10T08:23:59;150160.63;;;11.62;100.00
6599;BME280;3335;43.198;27.918;2023-01-10T08:26:27;150156.88;;;11.60;100.00
6599;BME280;3335;43.198;27.918;2023-01-10T08:28:54;150155.63;;;11.60;100.00
6599;BME280;3335;43.198;27.918;2023-01-10T08:31:21;150158.13;;;11.61;100.00
6599;BME280;3335;43.198;27.918;2023-01-10T08:33:48;149975.69;;;10.87;100.00
6599;BME280;3335;43.198;27.918;2023-01-10T08:36:15;150155.63;;;11.60;100.00
6599;BME280;3335;43.198;27.918;2023-01-10T08:38:43;150156.88;;;11.60;100.00
6599;BME280;3335;43.198;27.918;2023-01-10T08:41:10;150155.63;;;11.60;100.00
6599;BME280;3335;43.198;27.918;2023-01-10T08:43:39;150178.16;;;11.69;100.00
6599;BME280;3335;43.198;27.918;2023-01-10T08:46:06;150184.41;;;11.71;100.00
6599;BME280;3335;43.198;27.918;2023-01-10T08:48:33;150200.72;;;11.78;100.00
6599;BME280;3335;43.198;27.918;2023-01-10T08:51:05;150170.63;;;11.66;100.00
6599;BME280;3335;43.198;27.918;2023-01-10T08:53:32;150215.69;;;11.84;100.00
6599;BME280;3335;43.198;27.918;2023-01-10T08:55:59;150213.22;;;11.83;100.00
6599;BME280;3335;43.198;27.918;2023-01-10T08:58:25;150225.69;;;11.88;100.00
6599;BME280;3335;43.198;27.918;2023-01-10T09:00:54;150240.69;;;11.94;100.00
6599;BME280;3335;43.198;27.918;2023-01-10T09:03:21;150243.22;;;11.95;100.00
6599;BME280;3335;43.198;27.918;2023-01-10T09:05:48;150255.72;;;12.00;100.00
6599;BME280;3335;43.198;27.918;2023-01-10T09:08:15;150284.44;;;12.12;100.00
6599;BME280;3335;43.198;27.918;2023-01-10T09:10:42;150304.50;;;12.20;100.00
6599;BME280;3335;43.198;27.918;2023-01-10T09:13:08;150325.75;;;12.28;100.00
6599;BME280;3335;43.198;27.918;2023-01-10T09:15:36;150329.53;;;12.30;100.00
6599;BME280;3335;43.198;27.918;2023-01-10T09:18:06;150313.25;;;12.23;100.00
6599;BME280;3335;43.198;27.918;2023-01-10T09:20:35;150323.25;;;12.27;100.00
6599;BME280;3335;43.198;27.918;2023-01-10T09:23:04;150300.72;;;12.18;100.00
6599;BME280;3335;43.198;27.918;2023-01-10T09:25:31;150280.72;;;12.10;100.00
6599;BME280;3335;43.198;27.918;2023-01-10T09:28:00;150288.22;;;12.13;100.00
6599;BME280;3335;43.198;27.918;2023-01-10T09:30:28;150273.19;;;12.07;100.00
6599;BME280;3335;43.198;27.918;2023-01-10T09:32:56;150015.63;;;11.03;100.00
6599;BME280;3335;43.198;27.918;2023-01-10T09:35:26;150245.72;;;11.96;100.00
6599;BME280;3335;43.198;27.918;2023-01-10T09:37:53;150233.22;;;11.91;100.00
6599;BME280;3335;43.198;27.918;2023-01-10T09:40:29;150190.66;;;11.74;100.00
6599;BME280;3335;43.198;27.918;2023-01-10T09:43:05;150148.13;;;11.57;100.00
6599;BME280;3335;43.198;27.918;2023-01-10T09:45:40;150236.97;;;11.93;100.00
6599;BME280;3335;43.198;27.918;2023-01-10T09:48:12;150264.47;;;12.04;100.00
6599;BME280;3335;43.198;27.918;2023-01-10T09:50:53;150295.72;;;12.16;100.00
6599;BME280;3335;43.198;27.918;2023-01-10T09:53:28;150340.78;;;12.35;100.00
6599;BME280;3335;43.198;27.918;2023-01-10T09:55:58;150350.78;;;12.39;100.00
6599;BME280;3335;43.198;27.918;2023-01-10T09:58:29;150405.81;;;12.61;100.00
6599;BME280;3335;43.198;27.918;2023-01-10T10:00:58;150370.78;;;12.47;100.00
6599;BME280;3335;43.198;27.918;2023-01-10T10:03:30;150345.75;;;12.37;100.00
6599;BME280;3335;43.198;27.918;2023-01-10T10:05:59;150344.50;;;12.36;100.00
6599;BME280;3335;43.198;27.918;2023-01-10T10:08:27;150345.75;;;12.37;100.00
6599;BME280;3335;43.198;27.918;2023-01-10T10:11:07;150353.28;;;12.40;100.00
6599;BME280;3335;43.198;27.918;2023-01-10T10:13:46;150335.75;;;12.33;100.00
6599;BME280;3335;43.198;27.918;2023-01-10T10:16:26;150334.50;;;12.32;100.00
6599;BME280;3335;43.198;27.918;2023-01-10T10:19:03;150308.22;;;12.21;100.00
6599;BME280;3335;43.198;27.918;2023-01-10T10:21:41;150288.22;;;12.13;100.00
6599;BME280;3335;43.198;27.918;2023-01-10T10:24:27;150265.72;;;12.04;100.00
6599;BME280;3335;43.198;27.918;2023-01-10T10:26:58;150268.22;;;12.05;100.00
6599;BME280;3335;43.198;27.918;2023-01-10T10:32:55;150268.22;;;12.05;100.00
6599;BME280;3335;43.198;27.918;2023-01-10T10:35:29;150275.72;;;12.08;100.00
6599;BME280;3335;43.198;27.918;2023-01-10T10:38:04;150280.72;;;12.10;100.00
6599;BME280;3335;43.198;27.918;2023-01-10T10:40:37;150265.72;;;12.04;100.00
6599;BME280;3335;43.198;27.918;2023-01-10T10:43:13;150288.22;;;12.13;100.00
6599;BME280;3335;43.198;27.918;2023-01-10T10:45:46;150240.69;;;11.94;100.00
6599;BME280;3335;43.198;27.918;2023-01-10T10:48:16;150284.44;;;12.12;100.00
6599;BME280;3335;43.198;27.918;2023-01-10T10:50:52;150292.00;;;12.15;100.00
6599;BME280;3335;43.198;27.918;2023-01-10T10:53:22;150302.00;;;12.19;100.00
6599;BME280;3335;43.198;27.918;2023-01-10T10:55:49;150320.72;;;12.26;100.00
6599;BME280;3335;43.198;27.918;2023-01-10T10:58:17;150303.25;;;12.19;100.00
6599;BME280;3335;43.198;27.918;2023-01-10T11:00:44;150328.25;;;12.30;100.00
6599;BME280;3335;43.198;27.918;2023-01-10T11:03:24;150288.22;;;12.13;100.00
6599;BME280;3335;43.198;27.918;2023-01-10T11:05:51;150229.44;;;11.90;100.00
6599;BME280;3335;43.198;27.918;2023-01-10T11:08:19;150220.72;;;11.86;100.00
6599;BME280;3335;43.198;27.918;2023-01-10T11:10:52;150205.69;;;11.80;100.00
6599;BME280;3335;43.198;27.918;2023-01-10T11:13:28;150218.19;;;11.85;100.00
6599;BME280;3335;43.198;27.918;2023-01-10T11:15:56;150113.13;;;11.43;100.00
6599;BME280;3335;43.198;27.918;2023-01-10T11:18:25;150196.94;;;11.76;100.00
6599;BME280;3335;43.198;27.918;2023-01-10T11:20:55;150201.94;;;11.78;100.00
6599;BME280;3335;43.198;27.918;2023-01-10T11:23:36;150194.44;;;11.75;100.00
6599;BME280;3335;43.198;27.918;2023-01-10T11:26:06;149948.19;;;10.76;100.00
6599;BME280;3335;43.198;27.918;2023-01-10T11:28:34;150188.22;;;11.73;100.00
6599;BME280;3335;43.198;27.918;2023-01-10T11:31:02;150191.94;;;11.74;100.00
6599;BME280;3335;43.198;27.918;2023-01-10T11:33:31;150208.19;;;11.81;100.00
6599;BME280;3335;43.198;27.918;2023-01-10T11:36:02;150170.63;;;11.66;100.00
6599;BME280;3335;43.198;27.918;2023-01-10T11:38:30;150200.72;;;11.78;100.00
6599;BME280;3335;43.198;27.918;2023-01-10T11:40:59;150188.22;;;11.73;100.00
6599;BME280;3335;43.198;27.918;2023-01-10T11:43:31;150183.13;;;11.71;100.00
6599;BME280;3335;43.198;27.918;2023-01-10T11:46:00;150203.19;;;11.79;100.00
6599;BME280;3335;43.198;27.918;2023-01-10T11:48:44;150178.16;;;11.69;100.00
6599;BME280;3335;43.198;27.918;2023-01-10T11:51:21;150203.19;;;11.79;100.00
6599;BME280;3335;43.198;27.918;2023-01-10T11:53:54;150206.94;;;11.80;100.00
6599;BME280;3335;43.198;27.918;2023-01-10T11:56:26;150215.69;;;11.84;100.00
6599;BME280;3335;43.198;27.918;2023-01-10T11:58:56;150205.69;;;11.80;100.00
6599;BME280;3335;43.198;27.918;2023-01-10T12:01:30;150218.19;;;11.85;100.00
6599;BME280;3335;43.198;27.918;2023-01-10T12:04:00;150228.19;;;11.89;100.00
6599;BME280;3335;43.198;27.918;2023-01-10T12:06:28;150229.44;;;11.90;100.00
6599;BME280;3335;43.198;27.918;2023-01-10T12:08:55;150240.69;;;11.94;100.00
6599;BME280;3335;43.198;27.918;2023-01-10T12:11:26;150253.22;;;11.99;100.00
6599;BME280;3335;43.198;27.918;2023-01-10T12:13:57;150290.75;;;12.14;100.00
6599;BME280;3335;43.198;27.918;2023-01-10T12:16:26;150325.75;;;12.28;100.00
6599;BME280;3335;43.198;27.918;2023-01-10T12:18:54;150368.25;;;12.46;100.00
6599;BME280;3335;43.198;27.918;2023-01-10T12:21:29;150387.06;;;12.53;100.00
6599;BME280;3335;43.198;27.918;2023-01-10T12:24:00;150345.75;;;12.37;100.00
6599;BME280;3335;43.198;27.918;2023-01-10T12:26:31;150395.81;;;12.57;100.00
6599;BME280;3335;43.198;27.918;2023-01-10T12:29:05;150375.81;;;12.49;100.00
6599;BME280;3335;43.198;27.918;2023-01-10T12:31:34;150355.75;;;12.41;100.00
6599;BME280;3335;43.198;27.918;2023-01-10T12:34:06;150319.47;;;12.26;100.00
6599;BME280;3335;43.198;27.918;2023-01-10T12:36:45;150309.47;;;12.22;100.00
6599;BME280;3335;43.198;27.918;2023-01-10T12:39:19;150283.25;;;12.11;100.00
6599;BME280;3335;43.198;27.918;2023-01-10T12:42:10;150253.22;;;11.99;100.00
6599;BME280;3335;43.198;27.918;2023-01-10T12:45:02;150239.44;;;11.94;100.00
6599;BME280;3335;43.198;27.918;2023-01-10T12:47:35;150235.72;;;11.92;100.00
6599;BME280;3335;43.198;27.918;2023-01-10T12:50:08;150190.66;;;11.74;100.00
6599;BME280;3335;43.198;27.918;2023-01-10T12:52:41;150220.72;;;11.86;100.00
6599;BME280;3335;43.198;27.918;2023-01-10T12:55:13;150213.22;;;11.83;100.00
6599;BME280;3335;43.198;27.918;2023-01-10T12:57:41;150200.72;;;11.78;100.00
6599;BME280;3335;43.198;27.918;2023-01-10T13:00:20;150219.44;;;11.86;100.00
6599;BME280;3335;43.198;27.918;2023-01-10T13:02:51;150223.22;;;11.87;100.00
6599;BME280;3335;43.198;27.918;2023-01-10T13:05:22;150150.66;;;11.58;100.00
6599;BME280;3335;43.198;27.918;2023-01-10T13:07:50;150211.97;;;11.82;100.00
6599;BME280;3335;43.198;27.918;2023-01-10T13:10:21;150204.44;;;11.79;100.00
6599;BME280;3335;43.198;27.918;2023-01-10T13:12:52;150210.72;;;11.82;100.00
6599;BME280;3335;43.198;27.918;2023-01-10T13:15:23;150180.63;;;11.70;100.00
6599;BME280;3335;43.198;27.918;2023-01-10T13:17:57;150216.94;;;11.84;100.00